Map Display - EGPC to EGPD
(last flight recorded 17-02-2020, 20:22 - Adrian Smith)

Aircraft Weights    Units : Maximums
Passengers :   71  
Cargo : kg 950 kg
Suggested Fuel Load : kg 9,955 kg
 
     
 
Dry Operating : 18,600 kg    
Total Payload : 0 kg 5,894 kg
 
Take Off : 20,198 kg 32,886 kg
 
Expected Landing : 19,629 kg 26,535 kg

Stuart Sutton-Young,  VISC 800,  G-AOHS,  .

Route Distance Previous
Flights
Average
Duration
Average
Fuel Flow
Average
Fuel Use
EGPC - Wick
EGPD - Dyce, Aberdeen
81 nm 13 00:36 1,029 kg/h 569 kg

Current weather :-
 
2020/02/18 06:06
TAF EGPD 180457Z 1806/1906 23009KT 9999 FEW025 PROB30
TEMPO 1806/1815 24015G25KT PROB40
TEMPO 1819/1822 26016G28KT 6000 SHRASN
BECMG 1822/1901 28018G32KT

Back to Virtual Airline